createdAt,value
2023-05-25T00:02:27.331Z,4.50
2023-05-25T00:04:55.590Z,4.20
2023-05-25T00:07:23.852Z,3.90
2023-05-25T00:09:53.514Z,4.40
2023-05-25T00:12:21.756Z,4.30
2023-05-25T00:14:50.130Z,4.47
2023-05-25T00:17:18.801Z,4.30
2023-05-25T00:19:47.203Z,4.57
2023-05-25T00:22:15.535Z,4.47
2023-05-25T00:24:43.815Z,4.37
2023-05-25T00:27:13.505Z,4.37
2023-05-25T00:29:41.817Z,4.70
2023-05-25T00:32:10.024Z,3.63
2023-05-25T00:34:38.400Z,5.23
2023-05-25T00:37:07.206Z,4.40
2023-05-25T00:39:35.472Z,5.53
2023-05-25T00:42:03.852Z,5.67
2023-05-25T00:44:33.493Z,4.80
2023-05-25T00:47:03.012Z,5.57
2023-05-25T00:49:34.946Z,5.73
2023-05-25T00:52:03.738Z,5.10
2023-05-25T00:54:33.593Z,5.50
2023-05-25T00:57:04.490Z,5.60
2023-05-25T00:59:40.793Z,6.03
2023-05-25T01:02:10.672Z,5.53
2023-05-25T01:04:45.479Z,5.93
2023-05-25T01:07:19.403Z,5.33
2023-05-25T01:09:49.322Z,6.23
2023-05-25T01:12:19.256Z,5.70
2023-05-25T01:14:49.295Z,5.47
2023-05-25T01:17:20.505Z,6.20
2023-05-25T01:20:01.655Z,6.30
2023-05-25T01:22:44.442Z,6.00
2023-05-25T01:25:21.674Z,5.40
2023-05-25T01:27:55.815Z,6.37
2023-05-25T01:30:34.312Z,5.80
2023-05-25T01:33:03.310Z,6.13
2023-05-25T01:35:32.480Z,6.03
2023-05-25T01:38:02.834Z,6.33
2023-05-25T01:40:32.678Z,6.07
2023-05-25T01:43:02.463Z,6.53
2023-05-25T01:45:33.056Z,6.07
2023-05-25T01:48:09.680Z,6.33
2023-05-25T01:50:44.517Z,6.47
2023-05-25T01:53:21.793Z,5.77
2023-05-25T01:55:56.240Z,6.80
2023-05-25T01:58:27.676Z,6.60
2023-05-25T02:00:57.594Z,6.87
2023-05-25T02:03:26.108Z,6.73
2023-05-25T02:05:57.922Z,6.70
2023-05-25T02:08:27.542Z,6.67
2023-05-25T02:10:55.778Z,5.93
2023-05-25T02:13:23.996Z,7.07
2023-05-25T02:15:52.382Z,6.67
2023-05-25T02:18:20.929Z,6.30
2023-05-25T02:20:49.151Z,6.70
2023-05-25T02:23:18.666Z,6.87
2023-05-25T02:25:48.250Z,6.90
2023-05-25T02:28:17.971Z,7.77
2023-05-25T02:30:46.239Z,7.40
2023-05-25T02:33:14.515Z,6.53
2023-05-25T02:35:43.007Z,7.07
2023-05-25T02:38:12.429Z,7.03
2023-05-25T02:40:40.668Z,7.30
2023-05-25T02:43:10.309Z,6.63
2023-05-25T02:45:39.885Z,6.90
2023-05-25T02:48:08.521Z,6.60
2023-05-25T02:50:37.073Z,7.53
2023-05-25T02:53:11.123Z,7.57
2023-05-25T02:55:40.541Z,6.50
2023-05-25T02:58:12.927Z,7.83
2023-05-25T03:01:01.241Z,7.67
2023-05-25T03:03:30.333Z,7.03
2023-05-25T03:05:58.887Z,7.80
2023-05-25T03:08:27.327Z,7.87
2023-05-25T03:10:55.945Z,7.93
2023-05-25T03:13:25.633Z,7.30
2023-05-25T03:15:53.907Z,7.47
2023-05-25T03:18:22.257Z,7.70
2023-05-25T03:20:51.827Z,7.77
2023-05-25T03:23:20.114Z,7.63
2023-05-25T03:25:49.193Z,7.40
2023-05-25T03:28:18.798Z,7.70
2023-05-25T03:30:48.476Z,8.30
2023-05-25T03:33:17.096Z,9.40
2023-05-25T03:35:48.918Z,7.70
2023-05-25T03:38:17.309Z,7.97
2023-05-25T03:40:46.166Z,8.07
2023-05-25T03:43:14.530Z,8.20
2023-05-25T03:45:46.165Z,8.97
2023-05-25T03:48:16.103Z,9.13
2023-05-25T03:50:44.332Z,8.57
2023-05-25T03:53:12.539Z,8.27
2023-05-25T03:55:42.035Z,7.40
2023-05-25T03:58:11.079Z,7.77
2023-05-25T04:00:39.320Z,9.60
2023-05-25T04:03:10.986Z,8.67
2023-05-25T04:05:42.161Z,8.40
2023-05-25T04:08:10.829Z,7.43
2023-05-25T04:10:39.145Z,8.23
2023-05-25T04:13:07.400Z,8.57
2023-05-25T04:15:35.724Z,9.03
2023-05-25T04:18:09.219Z,8.47
2023-05-25T04:20:37.874Z,7.50
2023-05-25T04:23:08.763Z,7.93
2023-05-25T04:25:38.122Z,8.80
2023-05-25T04:28:08.436Z,10.13
2023-05-25T04:30:58.129Z,8.63
2023-05-25T04:33:34.284Z,9.23
2023-05-25T04:36:15.570Z,8.23
2023-05-25T04:38:48.453Z,9.00
2023-05-25T04:41:17.838Z,8.87
2023-05-25T04:44:06.879Z,9.43
2023-05-25T04:46:39.091Z,9.67
2023-05-25T04:49:09.970Z,9.47
2023-05-25T04:51:38.272Z,9.30
2023-05-25T04:54:08.010Z,8.87
2023-05-25T04:56:36.508Z,9.50
2023-05-25T04:59:06.389Z,9.03
2023-05-25T05:01:40.871Z,8.47
2023-05-25T05:04:11.316Z,10.13
2023-05-25T05:06:40.780Z,9.63
2023-05-25T05:09:11.859Z,8.97
2023-05-25T05:11:40.116Z,8.90
2023-05-25T05:14:09.173Z,9.43
2023-05-25T05:16:37.514Z,9.70
2023-05-25T05:19:06.167Z,8.97
2023-05-25T05:21:34.616Z,8.90
2023-05-25T05:24:06.236Z,9.73
2023-05-25T05:26:48.275Z,9.10
2023-05-25T05:29:28.688Z,9.73
2023-05-25T05:31:57.354Z,8.53
2023-05-25T05:34:26.835Z,9.30
2023-05-25T05:36:58.417Z,8.97
2023-05-25T05:39:29.053Z,8.97
2023-05-25T05:41:59.243Z,9.33
2023-05-25T05:44:29.488Z,9.10
2023-05-25T05:47:01.722Z,8.47
2023-05-25T05:49:31.926Z,8.17
2023-05-25T05:52:02.081Z,8.70
2023-05-25T05:54:30.566Z,8.83
2023-05-25T05:57:04.058Z,8.40
2023-05-25T05:59:32.285Z,8.77
2023-05-25T06:02:00.656Z,9.27
2023-05-25T06:04:29.224Z,8.33
2023-05-25T06:06:59.231Z,9.63
2023-05-25T06:09:27.679Z,8.20
2023-05-25T06:11:59.985Z,8.47
2023-05-25T06:14:29.828Z,8.50
2023-05-25T06:17:02.547Z,9.13
2023-05-25T06:19:31.082Z,9.43
2023-05-25T06:21:59.635Z,8.50
2023-05-25T06:24:27.898Z,8.47
2023-05-25T06:26:56.161Z,8.87
2023-05-25T06:29:24.519Z,7.63
2023-05-25T06:31:54.109Z,8.53
2023-05-25T06:34:22.486Z,7.43
2023-05-25T06:36:51.188Z,8.47
2023-05-25T06:39:20.289Z,7.33
2023-05-25T06:41:49.163Z,8.33
2023-05-25T06:44:27.600Z,9.03
2023-05-25T06:46:57.238Z,7.70
2023-05-25T06:49:26.290Z,7.70
2023-05-25T06:51:54.492Z,7.13
2023-05-25T06:54:22.822Z,7.30
2023-05-25T06:56:51.200Z,6.87
2023-05-25T06:59:19.479Z,7.17
2023-05-25T07:01:48.209Z,6.90
2023-05-25T07:04:21.612Z,6.55
2023-05-25T07:06:49.885Z,6.60
2023-05-25T07:09:18.119Z,6.50
2023-05-25T07:11:49.383Z,7.50
2023-05-25T07:14:18.665Z,5.80
2023-05-25T07:16:46.923Z,6.47
2023-05-25T07:19:15.168Z,6.85
2023-05-25T07:21:44.780Z,5.87
2023-05-25T07:24:13.008Z,5.50
2023-05-25T07:26:41.236Z,6.83
2023-05-25T07:29:09.504Z,6.88
2023-05-25T07:31:37.950Z,6.03
2023-05-25T07:34:06.226Z,5.73
2023-05-25T07:36:34.515Z,6.20
2023-05-25T07:39:04.272Z,6.43
2023-05-25T07:41:33.733Z,6.37
2023-05-25T07:44:02.031Z,6.00
2023-05-25T07:46:30.366Z,6.55
2023-05-25T07:48:59.751Z,6.25
2023-05-25T07:51:31.175Z,5.95
2023-05-25T07:53:59.537Z,7.28
2023-05-25T07:56:29.114Z,5.47
2023-05-25T07:58:58.078Z,6.10
2023-05-25T08:01:27.125Z,5.57
2023-05-25T08:03:55.691Z,7.00
2023-05-25T08:06:24.491Z,5.35
2023-05-25T08:08:52.788Z,5.88
2023-05-25T08:11:26.390Z,6.53
2023-05-25T08:13:56.088Z,6.93
2023-05-25T08:16:24.418Z,6.85
2023-05-25T08:18:52.813Z,6.43
2023-05-25T08:21:21.124Z,6.80
2023-05-25T08:23:50.723Z,7.25
2023-05-25T08:26:37.933Z,6.65
2023-05-25T08:29:08.640Z,7.18
2023-05-25T08:31:37.338Z,8.73
2023-05-25T08:34:05.688Z,8.38
2023-05-25T08:41:12.836Z,9.25
2023-05-25T08:43:43.128Z,7.80
2023-05-25T08:46:13.059Z,7.07
2023-05-25T08:48:42.948Z,7.68
2023-05-25T08:51:14.437Z,6.95
2023-05-25T08:53:44.936Z,7.57
2023-05-25T08:56:20.328Z,6.93
2023-05-25T08:58:59.059Z,5.85
2023-05-25T09:01:31.926Z,6.25
2023-05-25T09:04:02.414Z,5.80
2023-05-25T09:06:31.764Z,6.05
2023-05-25T09:09:00.120Z,5.05
2023-05-25T09:11:38.643Z,4.63
2023-05-25T09:14:08.793Z,5.03
2023-05-25T09:16:39.349Z,5.38
2023-05-25T09:19:07.589Z,4.50
2023-05-25T09:21:36.059Z,4.43
2023-05-25T09:24:04.414Z,5.22
2023-05-25T09:26:32.717Z,4.30
2023-05-25T09:29:02.111Z,4.35
2023-05-25T09:31:30.588Z,4.60
2023-05-25T09:34:01.053Z,4.53
2023-05-25T09:36:29.496Z,4.88
2023-05-25T09:38:58.272Z,4.20
2023-05-25T09:41:29.281Z,4.10
2023-05-25T09:44:06.637Z,3.90
2023-05-25T09:46:39.829Z,4.05
2023-05-25T09:49:10.781Z,4.22
2023-05-25T09:51:39.405Z,4.00
2023-05-25T09:54:11.660Z,4.25
2023-05-25T09:56:39.861Z,3.83
2023-05-25T09:59:08.321Z,3.80
2023-05-25T10:01:37.324Z,3.63
2023-05-25T10:04:06.004Z,4.20
2023-05-25T10:06:36.118Z,3.35
2023-05-25T10:09:06.882Z,3.50
2023-05-25T10:11:37.205Z,3.00
2023-05-25T10:14:08.729Z,2.92
2023-05-25T10:16:41.207Z,3.10
2023-05-25T10:19:18.236Z,3.60
2023-05-25T10:21:51.732Z,4.30
2023-05-25T10:24:28.176Z,3.60
2023-05-25T10:27:07.737Z,4.78
2023-05-25T10:29:45.614Z,4.30
2023-05-25T10:32:16.164Z,3.78
2023-05-25T10:34:44.870Z,4.20
2023-05-25T10:37:15.906Z,4.38
2023-05-25T10:39:44.901Z,5.03
2023-05-25T10:42:13.756Z,6.40
2023-05-25T10:44:43.433Z,4.85
2023-05-25T10:47:13.010Z,4.68
2023-05-25T10:49:54.181Z,4.55
2023-05-25T10:52:28.757Z,4.57
2023-05-25T10:54:57.949Z,5.03
2023-05-25T10:57:27.434Z,4.53
2023-05-25T11:00:01.631Z,3.97
2023-05-25T11:02:32.262Z,4.45
2023-05-25T11:05:32.661Z,4.47
2023-05-25T11:08:04.384Z,4.10
2023-05-25T11:10:53.363Z,3.60
2023-05-25T11:13:34.009Z,3.58
2023-05-25T11:16:36.125Z,3.97
2023-05-25T11:19:04.744Z,3.63
2023-05-25T11:21:43.824Z,4.32
2023-05-25T11:24:18.542Z,4.43
2023-05-25T11:26:57.656Z,4.63
2023-05-25T11:29:27.235Z,4.30
2023-05-25T11:31:57.277Z,4.68
2023-05-25T11:34:26.288Z,4.50
2023-05-25T11:37:01.707Z,4.57
2023-05-25T11:39:32.199Z,4.78
2023-05-25T11:42:05.011Z,4.35
2023-05-25T11:44:34.608Z,4.40
2023-05-25T11:47:06.062Z,3.95
2023-05-25T11:49:34.393Z,5.50
2023-05-25T11:52:07.454Z,5.25
2023-05-25T11:54:37.264Z,4.45
2023-05-25T11:57:06.453Z,4.75
2023-05-25T11:59:34.788Z,4.20
2023-05-25T12:02:05.108Z,4.25
2023-05-25T12:04:35.227Z,3.83
2023-05-25T12:07:04.360Z,4.60
2023-05-25T12:09:32.843Z,4.38
2023-05-25T12:12:05.056Z,4.78
2023-05-25T12:14:36.157Z,4.50
2023-05-25T12:17:04.756Z,5.00
2023-05-25T12:19:33.478Z,4.10
2023-05-25T12:22:01.869Z,3.67
2023-05-25T12:24:30.424Z,5.22
2023-05-25T12:26:59.218Z,3.58
2023-05-25T12:29:29.498Z,3.88
2023-05-25T12:32:03.757Z,3.88
2023-05-25T12:34:31.990Z,4.50
2023-05-25T12:37:01.513Z,3.88
2023-05-25T12:39:39.467Z,4.10
2023-05-25T12:42:15.161Z,4.25
2023-05-25T12:44:46.561Z,3.78
2023-05-25T12:47:16.342Z,4.07
2023-05-25T12:49:45.869Z,4.30
2023-05-25T12:52:34.330Z,3.65
2023-05-25T12:55:20.591Z,3.78
2023-05-25T12:57:52.476Z,4.60
2023-05-25T13:00:26.662Z,4.72
2023-05-25T13:02:55.689Z,4.57
2023-05-25T13:05:25.348Z,4.97
2023-05-25T13:07:55.465Z,3.90
2023-05-25T13:10:24.051Z,4.72
2023-05-25T13:12:55.579Z,4.68
2023-05-25T13:15:26.757Z,5.40
2023-05-25T13:17:56.419Z,5.40
2023-05-25T13:20:26.541Z,5.20
2023-05-25T13:22:55.732Z,5.57
2023-05-25T13:25:27.029Z,5.38
2023-05-25T13:27:56.958Z,5.45
2023-05-25T13:30:26.953Z,5.13
2023-05-25T13:32:55.366Z,5.38
2023-05-25T13:35:37.523Z,7.45
2023-05-25T13:38:06.480Z,8.02
2023-05-25T13:40:34.897Z,7.28
2023-05-25T13:43:03.301Z,6.38
2023-05-25T13:45:33.561Z,4.88
2023-05-25T13:48:01.921Z,5.13
2023-05-25T13:50:30.612Z,4.60
2023-05-25T13:52:58.884Z,4.55
2023-05-25T13:55:27.179Z,4.82
2023-05-25T13:57:55.702Z,6.28
2023-05-25T14:00:24.151Z,4.82
2023-05-25T14:02:53.925Z,5.40
2023-05-25T14:05:22.436Z,5.40
2023-05-25T14:07:50.955Z,5.55
2023-05-25T14:10:19.593Z,4.82
2023-05-25T14:12:47.887Z,5.05
2023-05-25T14:15:16.148Z,5.88
2023-05-25T14:17:44.417Z,4.53
2023-05-25T14:20:20.755Z,5.30
2023-05-25T14:22:49.174Z,5.10
2023-05-25T14:25:17.440Z,4.47
2023-05-25T14:27:45.692Z,4.10
2023-05-25T14:30:14.322Z,3.85
2023-05-25T14:32:42.578Z,4.43
2023-05-25T14:35:11.120Z,4.63
2023-05-25T14:37:41.595Z,4.35
2023-05-25T14:40:10.981Z,5.35
2023-05-25T14:42:39.356Z,4.53
2023-05-25T14:45:10.954Z,4.82
2023-05-25T14:47:40.813Z,4.65
2023-05-25T14:50:09.821Z,3.80
2023-05-25T14:52:38.078Z,5.03
2023-05-25T14:55:09.082Z,4.00
2023-05-25T14:57:37.418Z,4.40
2023-05-25T15:00:06.467Z,4.95
2023-05-25T15:02:34.906Z,4.95
2023-05-25T15:05:03.313Z,4.90
2023-05-25T15:07:32.796Z,4.50
2023-05-25T15:10:03.357Z,4.95
2023-05-25T15:12:33.062Z,5.18
2023-05-25T15:15:01.376Z,4.75
2023-05-25T15:17:29.610Z,4.28
2023-05-25T15:19:57.919Z,4.85
2023-05-25T15:22:26.266Z,4.53
2023-05-25T15:24:54.521Z,5.28
2023-05-25T15:27:22.789Z,4.85
2023-05-25T15:29:52.430Z,4.63
2023-05-25T15:32:20.681Z,4.65
2023-05-25T15:34:48.934Z,4.90
2023-05-25T15:37:17.153Z,5.68
2023-05-25T15:39:45.407Z,4.75
2023-05-25T15:42:13.653Z,5.07
2023-05-25T15:44:42.193Z,4.43
2023-05-25T15:47:11.864Z,5.07
2023-05-25T15:49:40.837Z,4.68
2023-05-25T15:52:09.076Z,4.97
2023-05-25T15:54:37.309Z,5.78
2023-05-25T15:57:06.322Z,5.85
2023-05-25T15:59:34.533Z,5.60
2023-05-25T16:02:02.838Z,5.53
2023-05-25T16:04:32.506Z,5.50
2023-05-25T16:07:01.376Z,4.40
2023-05-25T16:09:29.960Z,4.68
2023-05-25T16:11:58.245Z,4.40
2023-05-25T16:14:26.653Z,5.15
2023-05-25T16:16:54.964Z,5.35
2023-05-25T16:19:23.272Z,4.70
2023-05-25T16:21:53.412Z,5.30
2023-05-25T16:24:21.699Z,4.95
2023-05-25T16:26:50.009Z,5.43
2023-05-25T16:29:18.434Z,4.57
2023-05-25T16:31:46.756Z,4.60
2023-05-25T16:34:15.040Z,4.93
2023-05-25T16:36:43.272Z,5.07
2023-05-25T16:39:12.959Z,5.13
2023-05-25T16:41:41.959Z,4.53
2023-05-25T16:44:11.578Z,4.72
2023-05-25T16:46:39.848Z,4.80
2023-05-25T16:49:08.166Z,4.60
2023-05-25T16:51:37.811Z,5.18
2023-05-25T16:54:06.351Z,4.93
2023-05-25T16:56:36.599Z,4.85
2023-05-25T16:59:04.877Z,5.00
2023-05-25T17:01:33.267Z,4.90
2023-05-25T17:04:01.642Z,4.93
2023-05-25T17:06:30.035Z,5.20
2023-05-25T17:08:58.269Z,5.10
2023-05-25T17:11:28.186Z,4.93
2023-05-25T17:13:58.056Z,4.70
2023-05-25T17:16:26.470Z,5.43
2023-05-25T17:18:54.764Z,4.80
2023-05-25T17:21:22.965Z,5.95
2023-05-25T17:23:51.390Z,4.90
2023-05-25T17:26:19.612Z,4.85
2023-05-25T17:28:48.906Z,5.03
2023-05-25T17:31:18.674Z,5.28
2023-05-25T17:33:46.920Z,4.75
2023-05-25T17:36:15.139Z,5.32
2023-05-25T17:38:43.737Z,4.78
2023-05-25T17:41:12.054Z,5.05
2023-05-25T17:43:40.432Z,4.53
2023-05-25T17:46:09.064Z,5.10
2023-05-25T17:48:38.748Z,5.07
2023-05-25T17:51:07.081Z,4.80
2023-05-25T17:53:35.624Z,5.05
2023-05-25T17:56:03.970Z,5.15
2023-05-25T17:58:32.350Z,4.90
2023-05-25T18:01:00.843Z,4.63
2023-05-25T18:03:29.233Z,5.35
2023-05-25T18:05:58.945Z,5.18
2023-05-25T18:08:27.220Z,4.60
2023-05-25T18:10:55.466Z,4.68
2023-05-25T18:13:23.681Z,4.55
2023-05-25T18:15:51.993Z,4.78
2023-05-25T18:18:20.925Z,4.15
2023-05-25T18:20:49.189Z,4.75
2023-05-25T18:23:18.863Z,4.90
2023-05-25T18:25:47.257Z,4.60
2023-05-25T18:28:16.027Z,4.53
2023-05-25T18:30:44.428Z,4.47
2023-05-25T18:33:12.834Z,4.10
2023-05-25T18:35:41.165Z,5.03
2023-05-25T18:38:09.430Z,4.88
2023-05-25T18:40:39.031Z,4.72
2023-05-25T18:43:07.829Z,4.65
2023-05-25T18:45:36.109Z,5.30
2023-05-25T18:48:07.522Z,5.55
2023-05-25T18:50:37.644Z,4.45
2023-05-25T18:53:09.757Z,5.00
2023-05-25T18:55:39.554Z,5.30
2023-05-25T18:58:07.880Z,6.05
2023-05-25T19:00:36.164Z,5.63
2023-05-25T19:03:05.273Z,6.20
2023-05-25T19:05:33.666Z,5.90
2023-05-25T19:08:01.897Z,6.47
2023-05-25T19:10:30.201Z,6.18
2023-05-25T19:12:59.819Z,6.20
2023-05-25T19:15:28.205Z,5.90
2023-05-25T19:17:56.495Z,6.35
2023-05-25T19:20:24.895Z,6.07
2023-05-25T19:22:53.153Z,5.93
2023-05-25T19:25:21.505Z,6.13
2023-05-25T19:27:49.844Z,6.55
2023-05-25T19:30:19.716Z,6.22
2023-05-25T19:32:48.062Z,6.18
2023-05-25T19:35:16.497Z,5.88
2023-05-25T19:37:44.700Z,5.25
2023-05-25T19:40:13.370Z,6.75
2023-05-25T19:42:41.810Z,5.82
2023-05-25T19:45:11.004Z,7.00
2023-05-25T19:47:40.725Z,6.30
2023-05-25T19:50:09.837Z,6.95
2023-05-25T19:52:38.088Z,6.75
2023-05-25T19:55:07.104Z,7.78
2023-05-25T19:57:35.461Z,6.75
2023-05-25T20:00:05.952Z,6.28
2023-05-25T20:02:41.418Z,6.07
2023-05-25T20:05:10.693Z,6.03
2023-05-25T20:07:39.010Z,6.60
2023-05-25T20:10:08.028Z,6.70
2023-05-25T20:12:36.413Z,6.88
2023-05-25T20:15:05.041Z,5.88
2023-05-25T20:17:33.831Z,7.15
2023-05-25T20:20:05.216Z,6.13
2023-05-25T20:22:33.719Z,6.05
2023-05-25T20:25:01.982Z,6.03
2023-05-25T20:27:30.210Z,6.75
2023-05-25T20:29:58.653Z,7.38
2023-05-25T20:32:26.974Z,6.78
2023-05-25T20:34:55.234Z,6.18
2023-05-25T20:37:24.888Z,6.22
2023-05-25T20:39:53.130Z,6.07
2023-05-25T20:42:21.346Z,6.63
2023-05-25T20:44:49.700Z,5.97
2023-05-25T20:47:17.964Z,7.47
2023-05-25T20:49:46.950Z,6.20
2023-05-25T20:52:15.268Z,6.90
2023-05-25T20:54:45.512Z,6.83
2023-05-25T20:57:13.744Z,5.93
2023-05-25T20:59:42.107Z,6.67
2023-05-25T21:02:10.401Z,6.63
2023-05-25T21:04:38.695Z,7.97
2023-05-25T21:07:07.185Z,6.60
2023-05-25T21:09:35.580Z,7.20
2023-05-25T21:12:05.755Z,7.27
2023-05-25T21:14:34.577Z,6.53
2023-05-25T21:17:02.801Z,6.13
2023-05-25T21:19:34.082Z,6.40
2023-05-25T21:22:05.866Z,7.50
2023-05-25T21:24:34.230Z,6.67
2023-05-25T21:27:02.457Z,7.37
2023-05-25T21:29:32.087Z,6.43
2023-05-25T21:32:03.085Z,6.87
2023-05-25T21:34:31.707Z,7.03
2023-05-25T21:36:59.947Z,6.77
2023-05-25T21:39:28.201Z,7.30
2023-05-25T21:41:56.556Z,8.00
2023-05-25T21:44:24.816Z,6.67
2023-05-25T21:46:54.413Z,6.90
2023-05-25T21:49:22.682Z,7.20
2023-05-25T21:51:50.925Z,7.97
2023-05-25T21:54:19.165Z,8.17
2023-05-25T21:56:47.469Z,7.63
2023-05-25T21:59:15.706Z,8.47
2023-05-25T22:01:45.106Z,7.00
2023-05-25T22:04:14.775Z,7.60
2023-05-25T22:06:42.993Z,8.30
2023-05-25T22:09:11.292Z,8.37
2023-05-25T22:11:40.073Z,8.40
2023-05-25T22:14:08.350Z,7.40
2023-05-25T22:16:36.608Z,8.17
2023-05-25T22:19:04.949Z,7.33
2023-05-25T22:21:34.610Z,8.47
2023-05-25T22:24:02.957Z,6.97
2023-05-25T22:26:31.275Z,8.37
2023-05-25T22:28:59.512Z,7.77
2023-05-25T22:31:28.690Z,7.83
2023-05-25T22:33:56.959Z,6.93
2023-05-25T22:36:25.185Z,8.43
2023-05-25T22:38:54.815Z,8.53
2023-05-25T22:41:23.260Z,8.17
2023-05-25T22:43:51.458Z,7.60
2023-05-25T22:46:20.613Z,7.80
2023-05-25T22:48:48.918Z,7.23
2023-05-25T22:51:17.213Z,8.70
2023-05-25T22:53:45.619Z,8.10
2023-05-25T22:56:15.727Z,6.77
2023-05-25T22:58:44.004Z,9.30
2023-05-25T23:01:12.168Z,7.90
2023-05-25T23:03:40.694Z,7.67
2023-05-25T23:06:09.126Z,8.60
2023-05-25T23:08:37.330Z,8.07
2023-05-25T23:11:05.588Z,7.83
2023-05-25T23:13:35.804Z,6.90
2023-05-25T23:16:05.343Z,7.63
2023-05-25T23:18:33.655Z,8.57
2023-05-25T23:21:01.951Z,8.40
2023-05-25T23:23:30.207Z,8.20
2023-05-25T23:25:58.536Z,7.70
2023-05-25T23:28:26.834Z,7.33
2023-05-25T23:30:56.579Z,7.53
2023-05-25T23:33:24.914Z,7.43
2023-05-25T23:35:53.377Z,8.57
2023-05-25T23:38:21.668Z,7.37
2023-05-25T23:40:49.910Z,7.10
2023-05-25T23:43:18.306Z,7.67
2023-05-25T23:45:46.823Z,7.90
2023-05-25T23:48:16.788Z,7.30
2023-05-25T23:50:45.061Z,8.23
2023-05-25T23:53:13.283Z,6.53
2023-05-25T23:55:41.542Z,6.50
2023-05-25T23:58:09.764Z,7.40
